Sandra Hugh — WDD9019 — position and weather

sailwx.info

Track history (hours):
 
Tides and Currents Weather Stations Pressure Air Temp Water Temp Dewpoint Dewpoint Depression Visibility Wind Speed Wind Dir Waves Ship Positions

Sandra Hugh

Owner: Sortwell Inc., DBA AmNav Maritime Services, Oakland, CA. More information available from US FCC via Universal Licensing System and Coast Guard Vessel Documentation Center.

Last reported at 2016-Sep-24 22:33 UTC. Time now 2016-Sep-25 00:21 UTC.
Position N 37°49' W 122°19'.

Length 24 m; draft 4.9 m.

Type: Tug. MMSI: 367305920.

Date/timePositionNaut miles runAvg speedWind from/ knotsBaromVisibWave heightAir tempDewpointWater temp
2016-Sep-24 22:33N 37°49' W 122°19'0 0.0
2016-Sep-24 21:34N 37°49' W 122°19'0 0.0
2016-Sep-24 19:33N 37°49' W 122°19'0 0.0
2016-Sep-24 18:33N 37°49' W 122°19'0 0.0
2016-Sep-24 17:33N 37°49' W 122°19'2 2.4
2016-Sep-24 16:33N 37°50' W 122°22'6 2.8
2016-Sep-24 14:33N 37°55' W 122°22'0 0.2
2016-Sep-24 12:33N 37°55' W 122°22'0 0.0
2016-Sep-24 10:33N 37°55' W 122°22'0 0.0
2016-Sep-24 09:33N 37°55' W 122°22'0 0.0
2016-Sep-24 03:33N 37°55' W 122°22'0 0.0
2016-Sep-24 02:33N 37°55' W 122°22'0 0.0
2016-Sep-24 01:33N 37°55' W 122°22'0 0.0
2016-Sep-24 00:34N 37°55' W 122°22'6 1.2
2016-Sep-23 19:33N 37°49' W 122°19'0 0.0
2016-Sep-23 17:34N 37°49' W 122°19'0 0.0
2016-Sep-23 16:33N 37°49' W 122°19'1 0.5
2016-Sep-23 15:33N 37°49' W 122°19'6 3.1
2016-Sep-23 13:32N 37°55' W 122°22'0 0.0
2016-Sep-23 09:33N 37°55' W 122°22'0 0.0
2016-Sep-23 06:33N 37°55' W 122°22'0 0.0
2016-Sep-23 04:33N 37°55' W 122°22'0 0.0
2016-Sep-23 03:33N 37°55' W 122°22'1 0.7
2016-Sep-23 02:34N 37°54' W 122°22'7 7.4
2016-Sep-23 01:33N 38°02' W 122°22'13 6.1
2016-Sep-22 23:24N 38°03' W 122°06'2 0.1
2016-Sep-21 19:22N 38°02' W 122°08'18 6.3
2016-Sep-21 16:33N 37°50' W 122°24'4 0.6
2016-Sep-21 09:33N 37°49' W 122°19'0 0.0
2016-Sep-21 08:33N 37°49' W 122°19'0 0.0
2016-Sep-21 05:33N 37°49' W 122°19'0 0.0
2016-Sep-21 03:33N 37°49' W 122°19'0 0.0
2016-Sep-21 02:33N 37°49' W 122°19'0 0.0
2016-Sep-20 17:33N 37°49' W 122°19'0 0.0
2016-Sep-20 14:33N 37°49' W 122°19'1 0.6
2016-Sep-20 13:33N 37°49' W 122°19'1 0.3
2016-Sep-20 10:33N 37°48' W 122°19'1 0.5
2016-Sep-20 08:33N 37°48' W 122°18'0 0.4
2016-Sep-20 07:33N 37°48' W 122°19'2 1.7
2016-Sep-20 06:33N 37°49' W 122°19'0 0.0
2016-Sep-20 02:33N 37°49' W 122°19'2 0.5
2016-Sep-19 23:33N 37°48' W 122°20'2 0.4
2016-Sep-19 19:33N 37°49' W 122°19'0 0.0
2016-Sep-19 18:33N 37°49' W 122°19'0 0.0
2016-Sep-19 16:33N 37°49' W 122°19'2 0.8
2016-Sep-19 14:33N 37°48' W 122°19'0 0.3
2016-Sep-19 13:33N 37°48' W 122°19'0 0.1
2016-Sep-19 12:33N 37°48' W 122°19'2 1.7
2016-Sep-19 11:33N 37°48' W 122°21'0 0.0
2016-Sep-19 09:33N 37°48' W 122°20'2 0.8
2016-Sep-19 07:33N 37°49' W 122°19'0 0.0
2016-Sep-19 06:33N 37°49' W 122°19'0 0.0
2016-Sep-19 03:33N 37°49' W 122°19'0 0.0
2016-Sep-19 02:33N 37°49' W 122°19'0 0.0
2016-Sep-19 00:33N 37°49' W 122°19'0 0.0
2016-Sep-18 19:33N 37°49' W 122°19'0 0.0
2016-Sep-18 15:34N 37°49' W 122°19'1 1.4
2016-Sep-18 14:33N 37°49' W 122°20'2 0.5
2016-Sep-18 10:33N 37°48' W 122°18'1 1.0
2016-Sep-18 09:33N 37°48' W 122°19'2 0.2
2016-Sep-18 02:33N 37°49' W 122°19'0 0.0
2016-Sep-18 01:33N 37°49' W 122°19'0 0.0
2016-Sep-18 00:34N 37°49' W 122°19'0 0.0
2016-Sep-17 22:34N 37°49' W 122°19'0 0.0
2016-Sep-17 21:33N 37°49' W 122°19'0 0.0
2016-Sep-17 20:34N 37°49' W 122°19'0 0.0
2016-Sep-17 19:16N 37°49' W 122°19'2 0.3
2016-Sep-17 13:34N 37°48' W 122°19'3 2.8
2016-Sep-17 12:34N 37°48' W 122°22'1 0.7
2016-Sep-17 10:33N 37°48' W 122°21'2 2.2
2016-Sep-17 09:34N 37°50' W 122°22'1010.4
2016-Sep-17 08:33N 38°00' W 122°24'8 7.7
2016-Sep-17 07:31N 38°04' W 122°15'4 2.3
2016-Sep-17 05:33N 38°02' W 122°09'1 0.8
2016-Sep-17 04:33N 38°02' W 122°08'0 0.0
2016-Sep-16 03:33N 38°02' W 122°08'0 0.0
2016-Sep-16 02:33N 38°02' W 122°08'0 0.0
2016-Sep-16 00:33N 38°02' W 122°08'0 0.0
2016-Sep-15 22:24N 38°02' W 122°08'2 0.4
2016-Sep-15 18:07N 38°03' W 122°06'19 3.4
2016-Sep-15 12:33N 37°48' W 122°22'3 2.7
2016-Sep-15 11:33N 37°49' W 122°19'0 0.0
2016-Sep-15 04:33N 37°49' W 122°19'0 0.0
2016-Sep-15 03:33N 37°49' W 122°19'2 0.8
2016-Sep-15 01:33N 37°48' W 122°19'  
Track history (hours):
 
Tides and Currents Weather Stations Pressure Air Temp Water Temp Dewpoint Dewpoint Depression Visibility Wind Speed Wind Dir Waves Ship Positions

Sandra Hugh

Owner: Sortwell Inc., DBA AmNav Maritime Services, Oakland, CA. More information available from US FCC via Universal Licensing System and Coast Guard Vessel Documentation Center.

Last reported at 2016-Sep-24 22:33 UTC. Time now 2016-Sep-25 00:21 UTC.
Position N 37°49' W 122°19'.

Length 24 m; draft 4.9 m.

Type: Tug. MMSI: 367305920.

Date/timePositionNaut miles runAvg speedWind from/ knotsBaromVisibWave heightAir tempDewpointWater temp
2016-Sep-24 22:33N 37°49' W 122°19'0 0.0
2016-Sep-24 21:34N 37°49' W 122°19'0 0.0
2016-Sep-24 19:33N 37°49' W 122°19'0 0.0
2016-Sep-24 18:33N 37°49' W 122°19'0 0.0
2016-Sep-24 17:33N 37°49' W 122°19'2 2.4
2016-Sep-24 16:33N 37°50' W 122°22'6 2.8
2016-Sep-24 14:33N 37°55' W 122°22'0 0.2
2016-Sep-24 12:33N 37°55' W 122°22'0 0.0
2016-Sep-24 10:33N 37°55' W 122°22'0 0.0
2016-Sep-24 09:33N 37°55' W 122°22'0 0.0
2016-Sep-24 03:33N 37°55' W 122°22'0 0.0
2016-Sep-24 02:33N 37°55' W 122°22'0 0.0
2016-Sep-24 01:33N 37°55' W 122°22'0 0.0
2016-Sep-24 00:34N 37°55' W 122°22'6 1.2
2016-Sep-23 19:33N 37°49' W 122°19'0 0.0
2016-Sep-23 17:34N 37°49' W 122°19'0 0.0
2016-Sep-23 16:33N 37°49' W 122°19'1 0.5
2016-Sep-23 15:33N 37°49' W 122°19'6 3.1
2016-Sep-23 13:32N 37°55' W 122°22'0 0.0
2016-Sep-23 09:33N 37°55' W 122°22'0 0.0
2016-Sep-23 06:33N 37°55' W 122°22'0 0.0
2016-Sep-23 04:33N 37°55' W 122°22'0 0.0
2016-Sep-23 03:33N 37°55' W 122°22'1 0.7
2016-Sep-23 02:34N 37°54' W 122°22'7 7.4
2016-Sep-23 01:33N 38°02' W 122°22'13 6.1
2016-Sep-22 23:24N 38°03' W 122°06'2 0.1
2016-Sep-21 19:22N 38°02' W 122°08'18 6.3
2016-Sep-21 16:33N 37°50' W 122°24'4 0.6
2016-Sep-21 09:33N 37°49' W 122°19'0 0.0
2016-Sep-21 08:33N 37°49' W 122°19'0 0.0
2016-Sep-21 05:33N 37°49' W 122°19'0 0.0
2016-Sep-21 03:33N 37°49' W 122°19'0 0.0
2016-Sep-21 02:33N 37°49' W 122°19'0 0.0
2016-Sep-20 17:33N 37°49' W 122°19'0 0.0
2016-Sep-20 14:33N 37°49' W 122°19'1 0.6
2016-Sep-20 13:33N 37°49' W 122°19'1 0.3
2016-Sep-20 10:33N 37°48' W 122°19'1 0.5
2016-Sep-20 08:33N 37°48' W 122°18'0 0.4
2016-Sep-20 07:33N 37°48' W 122°19'2 1.7
2016-Sep-20 06:33N 37°49' W 122°19'0 0.0
2016-Sep-20 02:33N 37°49' W 122°19'2 0.5
2016-Sep-19 23:33N 37°48' W 122°20'2 0.4
2016-Sep-19 19:33N 37°49' W 122°19'0 0.0
2016-Sep-19 18:33N 37°49' W 122°19'0 0.0
2016-Sep-19 16:33N 37°49' W 122°19'2 0.8
2016-Sep-19 14:33N 37°48' W 122°19'0 0.3
2016-Sep-19 13:33N 37°48' W 122°19'0 0.1
2016-Sep-19 12:33N 37°48' W 122°19'2 1.7
2016-Sep-19 11:33N 37°48' W 122°21'0 0.0
2016-Sep-19 09:33N 37°48' W 122°20'2 0.8
2016-Sep-19 07:33N 37°49' W 122°19'0 0.0
2016-Sep-19 06:33N 37°49' W 122°19'0 0.0
2016-Sep-19 03:33N 37°49' W 122°19'0 0.0
2016-Sep-19 02:33N 37°49' W 122°19'0 0.0
2016-Sep-19 00:33N 37°49' W 122°19'0 0.0
2016-Sep-18 19:33N 37°49' W 122°19'0 0.0
2016-Sep-18 15:34N 37°49' W 122°19'1 1.4
2016-Sep-18 14:33N 37°49' W 122°20'2 0.5
2016-Sep-18 10:33N 37°48' W 122°18'1 1.0
2016-Sep-18 09:33N 37°48' W 122°19'2 0.2
2016-Sep-18 02:33N 37°49' W 122°19'0 0.0
2016-Sep-18 01:33N 37°49' W 122°19'0 0.0
2016-Sep-18 00:34N 37°49' W 122°19'0 0.0
2016-Sep-17 22:34N 37°49' W 122°19'0 0.0
2016-Sep-17 21:33N 37°49' W 122°19'0 0.0
2016-Sep-17 20:34N 37°49' W 122°19'0 0.0
2016-Sep-17 19:16N 37°49' W 122°19'2 0.3
2016-Sep-17 13:34N 37°48' W 122°19'3 2.8
2016-Sep-17 12:34N 37°48' W 122°22'1 0.7
2016-Sep-17 10:33N 37°48' W 122°21'2 2.2
2016-Sep-17 09:34N 37°50' W 122°22'1010.4
2016-Sep-17 08:33N 38°00' W 122°24'8 7.7
2016-Sep-17 07:31N 38°04' W 122°15'4 2.3
2016-Sep-17 05:33N 38°02' W 122°09'1 0.8
2016-Sep-17 04:33N 38°02' W 122°08'0 0.0
2016-Sep-16 03:33N 38°02' W 122°08'0 0.0
2016-Sep-16 02:33N 38°02' W 122°08'0 0.0
2016-Sep-16 00:33N 38°02' W 122°08'0 0.0
2016-Sep-15 22:24N 38°02' W 122°08'2 0.4
2016-Sep-15 18:07N 38°03' W 122°06'19 3.4
2016-Sep-15 12:33N 37°48' W 122°22'3 2.7
2016-Sep-15 11:33N 37°49' W 122°19'0 0.0
2016-Sep-15 04:33N 37°49' W 122°19'0 0.0
2016-Sep-15 03:33N 37°49' W 122°19'2 0.8
2016-Sep-15 01:33N 37°48' W 122°19'  

Dump ship's entire track history